createdAt,value
2022-08-22T00:00:15.304Z,4.35
2022-08-22T00:02:47.891Z,2.00
2022-08-22T00:02:57.073Z,2.60
2022-08-22T00:06:00.275Z,4.80
2022-08-22T00:08:32.621Z,4.13
2022-08-22T00:11:24.973Z,5.00
2022-08-22T00:14:12.970Z,4.88
2022-08-22T00:16:53.494Z,5.28
2022-08-22T00:19:20.163Z,5.20
2022-08-22T00:21:53.494Z,4.50
2022-08-22T00:24:38.323Z,5.10
2022-08-22T00:27:10.423Z,5.03
2022-08-22T00:29:47.812Z,4.82
2022-08-22T00:32:27.012Z,5.05
2022-08-22T00:35:03.817Z,4.77
2022-08-22T00:37:38.513Z,4.80
2022-08-22T00:40:42.391Z,5.10
2022-08-22T00:43:45.471Z,5.07
2022-08-22T00:46:33.364Z,5.28
2022-08-22T00:49:05.733Z,5.10
2022-08-22T00:52:06.127Z,5.13
2022-08-22T00:55:06.651Z,4.70
2022-08-22T00:57:59.390Z,4.90
2022-08-22T01:00:35.061Z,5.05
2022-08-22T01:03:33.758Z,5.13
2022-08-22T01:06:32.407Z,5.03
2022-08-22T01:09:15.635Z,5.30
2022-08-22T01:12:17.608Z,5.13
2022-08-22T01:14:50.004Z,5.03
2022-08-22T01:17:25.280Z,5.33
2022-08-22T01:20:07.176Z,5.57
2022-08-22T01:23:10.916Z,4.97
2022-08-22T01:25:57.027Z,5.22
2022-08-22T01:28:44.800Z,5.25
2022-08-22T01:31:49.760Z,4.50
2022-08-22T01:34:53.707Z,4.90
2022-08-22T01:37:35.329Z,5.18
2022-08-22T01:40:32.365Z,5.72
2022-08-22T01:43:20.755Z,6.43
2022-08-22T01:46:31.451Z,6.50
2022-08-22T01:49:29.168Z,8.05
2022-08-22T01:52:01.761Z,7.47
2022-08-22T01:54:55.751Z,8.30
2022-08-22T01:57:24.431Z,7.70
2022-08-22T01:59:54.075Z,7.40
2022-08-22T02:02:34.314Z,7.32
2022-08-22T02:05:24.560Z,8.05
2022-08-22T02:08:17.307Z,7.13
2022-08-22T02:11:07.060Z,7.32
2022-08-22T02:13:42.165Z,7.83
2022-08-22T02:16:17.779Z,8.38
2022-08-22T02:19:06.098Z,7.97
2022-08-22T02:21:41.324Z,8.00
2022-08-22T02:24:44.659Z,7.72
2022-08-22T02:27:17.534Z,6.93
2022-08-22T02:29:52.828Z,6.80
2022-08-22T02:32:28.040Z,6.30
2022-08-22T02:35:06.433Z,6.25
2022-08-22T02:37:35.694Z,5.97
2022-08-22T02:40:09.728Z,5.23
2022-08-22T02:42:48.767Z,5.72
2022-08-22T02:45:29.572Z,5.53
2022-08-22T02:48:27.894Z,5.55
2022-08-22T02:50:57.941Z,5.43
2022-08-22T02:53:50.034Z,5.30
2022-08-22T02:56:23.659Z,5.25
2022-08-22T02:58:57.005Z,5.70
2022-08-22T03:01:40.766Z,5.40
2022-08-22T03:04:31.844Z,5.70
2022-08-22T03:06:58.175Z,6.03
2022-08-22T03:09:34.644Z,5.60
2022-08-22T03:12:25.328Z,6.30
2022-08-22T03:15:11.822Z,5.63
2022-08-22T03:18:05.804Z,6.35
2022-08-22T03:20:45.405Z,5.73
2022-08-22T03:23:31.144Z,6.65
2022-08-22T03:26:19.936Z,5.68
2022-08-22T03:29:08.888Z,5.95
2022-08-22T03:31:36.393Z,6.82
2022-08-22T03:34:16.980Z,6.53
2022-08-22T03:37:15.787Z,6.22
2022-08-22T03:39:45.335Z,6.47
2022-08-22T03:42:55.855Z,7.05
2022-08-22T03:45:59.815Z,6.25
2022-08-22T03:48:52.685Z,6.30
2022-08-22T03:51:52.664Z,6.65
2022-08-22T03:54:50.407Z,6.32
2022-08-22T03:57:40.100Z,5.93
2022-08-22T04:00:24.627Z,7.30
2022-08-22T04:03:22.605Z,7.33
2022-08-22T04:06:11.586Z,7.18
2022-08-22T04:09:29.998Z,7.47
2022-08-22T04:12:26.149Z,7.20
2022-08-22T04:15:31.233Z,6.55
2022-08-22T04:18:31.248Z,6.83
2022-08-22T04:21:12.994Z,6.43
2022-08-22T04:24:02.275Z,6.78
2022-08-22T04:26:43.713Z,6.80
2022-08-22T04:29:59.710Z,6.40
2022-08-22T04:32:36.509Z,7.20
2022-08-22T04:35:18.873Z,7.68
2022-08-22T04:37:52.065Z,8.80
2022-08-22T04:40:27.742Z,7.82
2022-08-22T04:43:00.884Z,7.82
2022-08-22T04:45:37.244Z,8.00
2022-08-22T04:48:09.567Z,8.05
2022-08-22T04:50:51.656Z,7.50
2022-08-22T04:53:35.408Z,7.25
2022-08-22T04:56:16.402Z,8.13
2022-08-22T04:58:54.358Z,7.47
2022-08-22T05:01:40.870Z,7.20
2022-08-22T05:04:20.245Z,8.02
2022-08-22T05:07:15.752Z,8.18
2022-08-22T05:09:56.431Z,8.00
2022-08-22T05:12:31.763Z,7.63
2022-08-22T05:15:06.153Z,7.50
2022-08-22T05:17:37.416Z,8.38
2022-08-22T05:20:08.946Z,8.30
2022-08-22T05:22:40.667Z,8.70
2022-08-22T05:25:19.784Z,8.00
2022-08-22T05:27:53.296Z,8.10
2022-08-22T05:30:27.817Z,8.45
2022-08-22T05:33:12.544Z,8.10
2022-08-22T05:35:52.429Z,7.78
2022-08-22T05:38:25.861Z,7.83
2022-08-22T05:40:59.792Z,8.15
2022-08-22T05:43:27.097Z,7.82
2022-08-22T05:45:58.049Z,7.82
2022-08-22T05:48:39.270Z,7.25
2022-08-22T05:51:31.347Z,7.70
2022-08-22T05:54:11.147Z,7.00
2022-08-22T05:56:45.882Z,7.28
2022-08-22T05:59:27.671Z,7.28
2022-08-22T06:02:05.992Z,7.00
2022-08-22T06:04:45.464Z,7.70
2022-08-22T06:07:21.192Z,6.90
2022-08-22T06:09:47.609Z,6.70
2022-08-22T06:12:22.560Z,6.75
2022-08-22T06:15:00.744Z,6.55
2022-08-22T06:17:33.564Z,6.43
2022-08-22T06:20:00.383Z,6.22
2022-08-22T06:22:36.828Z,6.50
2022-08-22T06:25:18.494Z,6.25
2022-08-22T06:27:49.112Z,6.70
2022-08-22T06:30:17.729Z,6.47
2022-08-22T06:32:59.865Z,6.53
2022-08-22T06:35:52.134Z,6.20
2022-08-22T06:38:20.435Z,6.35
2022-08-22T06:40:49.195Z,6.82
2022-08-22T06:43:17.192Z,6.83
2022-08-22T06:45:44.084Z,6.80
2022-08-22T06:48:16.475Z,6.78
2022-08-22T06:50:45.340Z,6.63
2022-08-22T06:53:19.631Z,6.00
2022-08-22T06:55:52.987Z,6.67
2022-08-22T06:58:39.759Z,6.25
2022-08-22T07:01:14.031Z,6.65
2022-08-22T07:03:45.177Z,5.80
2022-08-22T07:06:18.393Z,6.22
2022-08-22T07:08:45.064Z,6.00
2022-08-22T07:11:25.968Z,5.85
2022-08-22T07:14:03.465Z,5.65
2022-08-22T07:17:08.235Z,5.80
2022-08-22T07:19:39.399Z,5.05
2022-08-22T07:22:23.339Z,5.03
2022-08-22T07:24:57.984Z,5.40
2022-08-22T07:27:48.930Z,4.85
2022-08-22T07:30:27.256Z,4.70
2022-08-22T07:33:23.692Z,4.82
2022-08-22T07:35:53.752Z,4.80
2022-08-22T07:38:43.119Z,5.10
2022-08-22T07:41:20.955Z,5.40
2022-08-22T07:44:08.839Z,4.80
2022-08-22T07:46:41.200Z,4.40
2022-08-22T07:49:17.397Z,3.97
2022-08-22T07:51:47.743Z,4.15
2022-08-22T07:54:20.092Z,5.00
2022-08-22T07:57:09.514Z,4.43
2022-08-22T07:59:38.097Z,4.05
2022-08-22T08:02:10.739Z,4.20
2022-08-22T08:04:40.625Z,4.03
2022-08-22T08:07:10.583Z,4.47
2022-08-22T08:09:49.893Z,3.97
2022-08-22T08:12:20.368Z,3.30
2022-08-22T08:14:52.932Z,3.70
2022-08-22T08:17:30.044Z,3.38
2022-08-22T08:20:03.462Z,3.67
2022-08-22T08:22:31.197Z,3.40
2022-08-22T08:25:00.187Z,3.60
2022-08-22T08:27:50.499Z,3.73
2022-08-22T08:30:23.442Z,3.70
2022-08-22T08:32:59.543Z,3.35
2022-08-22T08:36:02.373Z,3.30
2022-08-22T08:38:39.360Z,3.33
2022-08-22T08:41:14.495Z,3.70
2022-08-22T08:44:18.414Z,3.72
2022-08-22T08:47:24.766Z,3.92
2022-08-22T08:50:05.077Z,3.47
2022-08-22T08:53:13.063Z,3.65
2022-08-22T08:55:51.774Z,3.80
2022-08-22T08:58:31.856Z,3.70
2022-08-22T09:01:17.063Z,4.20
2022-08-22T09:04:04.834Z,4.30
2022-08-22T09:07:07.779Z,4.10
2022-08-22T09:09:57.303Z,3.80
2022-08-22T09:12:52.190Z,4.63
2022-08-22T09:15:59.661Z,5.15
2022-08-22T09:18:40.615Z,4.93
2022-08-22T09:21:31.151Z,5.15
2022-08-22T09:24:23.364Z,4.57
2022-08-22T09:26:57.392Z,4.80
2022-08-22T09:29:54.536Z,4.78
2022-08-22T09:32:52.657Z,5.10
2022-08-22T09:35:26.968Z,4.65
2022-08-22T09:37:53.700Z,4.90
2022-08-22T09:40:30.868Z,4.88
2022-08-22T09:43:06.577Z,4.32
2022-08-22T09:45:40.295Z,4.20
2022-08-22T09:48:26.526Z,3.65
2022-08-22T09:51:31.627Z,3.80
2022-08-22T09:54:17.147Z,3.55
2022-08-22T09:56:53.477Z,3.50
2022-08-22T09:59:31.651Z,3.90
2022-08-22T10:02:45.426Z,3.40
2022-08-22T10:05:40.282Z,3.43
2022-08-22T10:08:32.163Z,3.30
2022-08-22T10:11:04.222Z,3.08
2022-08-22T10:13:38.332Z,3.00
2022-08-22T10:16:24.596Z,3.20
2022-08-22T10:19:19.427Z,2.63
2022-08-22T10:22:23.936Z,2.80
2022-08-22T10:25:37.363Z,3.03
2022-08-22T10:28:18.680Z,2.60
2022-08-22T10:31:00.826Z,2.80
2022-08-22T10:33:33.086Z,2.50
2022-08-22T10:36:08.069Z,2.58
2022-08-22T10:38:54.772Z,2.90
2022-08-22T10:41:39.489Z,2.50
2022-08-22T10:44:19.881Z,2.42
2022-08-22T10:46:55.283Z,2.10
2022-08-22T10:49:51.261Z,2.35
2022-08-22T10:52:43.275Z,2.45
2022-08-22T10:55:19.646Z,2.15
2022-08-22T10:58:06.291Z,2.20
2022-08-22T11:00:49.986Z,2.40
2022-08-22T11:03:53.070Z,2.20
2022-08-22T11:06:27.906Z,2.35
2022-08-22T11:09:07.124Z,2.08
2022-08-22T11:11:46.489Z,1.95
2022-08-22T11:14:42.379Z,2.07
2022-08-22T11:17:31.755Z,2.05
2022-08-22T11:20:22.750Z,1.95
2022-08-22T11:23:24.007Z,2.00
2022-08-22T11:25:53.777Z,2.40
2022-08-22T11:28:57.495Z,2.20
2022-08-22T11:32:12.717Z,1.98
2022-08-22T11:34:48.312Z,2.03
2022-08-22T11:37:43.302Z,2.03
2022-08-22T11:40:32.268Z,2.60
2022-08-22T11:43:17.986Z,2.40
2022-08-22T11:45:50.956Z,2.17
2022-08-22T11:49:02.486Z,2.25
2022-08-22T11:52:10.666Z,2.10
2022-08-22T11:55:08.373Z,2.30
2022-08-22T11:57:46.104Z,2.40
2022-08-22T12:00:20.998Z,2.10
2022-08-22T12:03:14.563Z,2.50
2022-08-22T12:06:23.089Z,2.33
2022-08-22T12:09:25.447Z,2.33
2022-08-22T12:12:29.675Z,2.40
2022-08-22T12:15:03.907Z,2.30
2022-08-22T12:17:55.576Z,2.20
2022-08-22T12:20:52.453Z,2.40
2022-08-22T12:23:43.496Z,2.83
2022-08-22T12:26:17.182Z,2.70
2022-08-22T12:28:59.790Z,2.38
2022-08-22T12:31:56.729Z,2.40
2022-08-22T12:34:52.742Z,2.30
2022-08-22T12:37:29.703Z,2.58
2022-08-22T12:40:21.380Z,2.67
2022-08-22T12:43:21.999Z,2.40
2022-08-22T12:46:28.849Z,2.28
2022-08-22T12:49:20.414Z,2.63
2022-08-22T12:52:38.269Z,2.58
2022-08-22T12:55:13.920Z,2.23
2022-08-22T12:58:00.865Z,2.25
2022-08-22T13:00:34.986Z,2.53
2022-08-22T13:03:09.694Z,2.67
2022-08-22T13:05:40.867Z,2.42
2022-08-22T13:08:29.772Z,2.70
2022-08-22T13:11:01.830Z,2.70
2022-08-22T13:13:36.844Z,2.45
2022-08-22T13:16:08.527Z,2.60
2022-08-22T13:18:53.695Z,2.70
2022-08-22T13:21:26.326Z,2.20
2022-08-22T13:24:04.736Z,2.25
2022-08-22T13:26:35.297Z,2.63
2022-08-22T13:29:39.560Z,2.38
2022-08-22T13:32:02.714Z,2.60
2022-08-22T13:34:48.250Z,2.60
2022-08-22T13:37:36.531Z,3.15
2022-08-22T13:40:08.846Z,2.63
2022-08-22T13:42:50.281Z,2.55
2022-08-22T13:45:29.796Z,2.80
2022-08-22T13:48:03.593Z,2.30
2022-08-22T13:50:37.591Z,2.92
2022-08-22T13:53:49.005Z,2.53
2022-08-22T13:56:32.646Z,2.70
2022-08-22T13:59:05.776Z,2.97
2022-08-22T14:01:53.656Z,2.53
2022-08-22T14:04:32.118Z,2.88
2022-08-22T14:07:03.618Z,2.90
2022-08-22T14:09:54.430Z,2.88
2022-08-22T14:12:28.720Z,3.00
2022-08-22T14:15:07.496Z,2.80
2022-08-22T14:17:43.750Z,3.10
2022-08-22T14:20:32.520Z,3.10
2022-08-22T14:23:04.931Z,2.83
2022-08-22T14:25:37.753Z,3.58
2022-08-22T14:28:11.070Z,3.13
2022-08-22T14:31:02.490Z,3.33
2022-08-22T14:33:39.904Z,2.83
2022-08-22T14:36:18.876Z,2.97
2022-08-22T14:39:07.093Z,3.20
2022-08-22T14:41:52.598Z,3.37
2022-08-22T14:44:31.321Z,2.95
2022-08-22T14:47:02.190Z,2.88
2022-08-22T14:49:51.607Z,3.30
2022-08-22T14:52:30.782Z,3.03
2022-08-22T14:55:09.406Z,3.50
2022-08-22T14:57:42.975Z,3.33
2022-08-22T15:00:12.412Z,3.30
2022-08-22T15:02:40.807Z,3.17
2022-08-22T15:05:18.327Z,2.90
2022-08-22T15:07:55.019Z,2.93
2022-08-22T15:10:34.371Z,2.80
2022-08-22T15:13:05.187Z,2.85
2022-08-22T15:15:49.850Z,3.13
2022-08-22T15:18:23.416Z,3.33
2022-08-22T15:21:02.177Z,2.60
2022-08-22T15:23:31.924Z,3.00
2022-08-22T15:26:03.662Z,2.90
2022-08-22T15:28:35.872Z,2.60
2022-08-22T15:31:20.091Z,2.95
2022-08-22T15:33:48.379Z,2.90
2022-08-22T15:36:27.167Z,2.42
2022-08-22T15:39:18.309Z,3.08
2022-08-22T15:41:49.363Z,2.63
2022-08-22T15:44:32.441Z,3.20
2022-08-22T15:47:34.994Z,3.20
2022-08-22T15:50:08.190Z,3.08
2022-08-22T15:53:09.693Z,2.97
2022-08-22T15:55:37.086Z,2.70
2022-08-22T15:58:12.869Z,3.00
2022-08-22T16:00:45.355Z,2.80
2022-08-22T16:03:27.036Z,2.45
2022-08-22T16:06:00.174Z,3.10
2022-08-22T16:08:48.705Z,2.80
2022-08-22T16:11:29.693Z,3.00
2022-08-22T16:14:38.240Z,3.30
2022-08-22T16:17:30.191Z,3.38
2022-08-22T16:20:25.546Z,3.28
2022-08-22T16:22:57.761Z,3.20
2022-08-22T16:25:43.036Z,3.10
2022-08-22T16:28:54.370Z,2.80
2022-08-22T16:31:45.808Z,3.40
2022-08-22T16:34:24.380Z,3.42
2022-08-22T16:37:14.349Z,3.10
2022-08-22T16:39:59.814Z,3.47
2022-08-22T16:42:35.904Z,3.50
2022-08-22T16:45:20.739Z,3.00
2022-08-22T16:47:58.189Z,3.10
2022-08-22T16:50:32.488Z,3.03
2022-08-22T16:53:01.138Z,3.45
2022-08-22T16:55:30.507Z,3.30
2022-08-22T16:58:55.807Z,3.08
2022-08-22T17:01:36.320Z,3.35
2022-08-22T17:04:13.228Z,3.30
2022-08-22T17:07:01.575Z,3.10
2022-08-22T17:09:49.214Z,3.03
2022-08-22T17:12:42.349Z,3.28
2022-08-22T17:15:33.758Z,3.03
2022-08-22T17:18:30.812Z,3.13
2022-08-22T17:21:04.546Z,3.53
2022-08-22T17:23:58.201Z,3.30
2022-08-22T17:26:55.308Z,3.30
2022-08-22T17:29:33.093Z,3.20
2022-08-22T17:32:34.746Z,3.88
2022-08-22T17:35:26.172Z,3.50
2022-08-22T17:38:07.751Z,3.10
2022-08-22T17:40:53.435Z,3.10
2022-08-22T17:43:33.520Z,3.17
2022-08-22T17:46:43.522Z,2.95
2022-08-22T17:49:35.011Z,3.45
2022-08-22T17:52:12.365Z,3.13
2022-08-22T17:54:47.279Z,3.08
2022-08-22T17:57:27.798Z,3.00
2022-08-22T18:00:11.463Z,3.22
2022-08-22T18:02:45.247Z,2.70
2022-08-22T18:05:19.763Z,3.20
2022-08-22T18:08:37.365Z,2.80
2022-08-22T18:11:00.280Z,3.00
2022-08-22T18:13:45.605Z,2.83
2022-08-22T18:16:23.171Z,3.10
2022-08-22T18:18:54.208Z,3.10
2022-08-22T18:21:39.019Z,2.75
2022-08-22T18:24:20.334Z,3.58
2022-08-22T18:27:02.791Z,3.28
2022-08-22T18:29:55.020Z,3.40
2022-08-22T18:32:28.402Z,3.40
2022-08-22T18:35:10.115Z,2.90
2022-08-22T18:37:37.097Z,3.03
2022-08-22T18:40:22.838Z,3.35
2022-08-22T18:43:02.265Z,2.95
2022-08-22T18:45:46.790Z,3.23
2022-08-22T18:48:29.403Z,2.92
2022-08-22T18:51:22.430Z,3.40
2022-08-22T18:53:53.255Z,2.95
2022-08-22T18:56:44.875Z,2.83
2022-08-22T18:59:45.791Z,3.20
2022-08-22T19:02:37.062Z,2.90
2022-08-22T19:05:20.952Z,3.38
2022-08-22T19:08:06.990Z,3.55
2022-08-22T19:10:39.008Z,3.40
2022-08-22T19:13:24.909Z,2.97
2022-08-22T19:16:07.387Z,3.42
2022-08-22T19:19:06.284Z,3.42
2022-08-22T19:22:22.370Z,3.47
2022-08-22T19:25:13.498Z,3.47
2022-08-22T19:27:46.882Z,3.40
2022-08-22T19:30:45.799Z,3.17
2022-08-22T19:33:16.748Z,3.60
2022-08-22T19:35:45.506Z,3.40
2022-08-22T19:38:32.251Z,3.38
2022-08-22T19:40:58.746Z,3.60
2022-08-22T19:43:28.092Z,3.60
2022-08-22T19:45:56.263Z,3.22
2022-08-22T19:48:31.410Z,3.88
2022-08-22T19:51:24.847Z,3.42
2022-08-22T19:54:16.742Z,3.33
2022-08-22T19:57:07.190Z,3.20
2022-08-22T19:59:52.947Z,3.50
2022-08-22T20:02:35.101Z,3.50
2022-08-22T20:05:19.488Z,3.60
2022-08-22T20:08:13.375Z,3.37
2022-08-22T20:10:42.912Z,3.70
2022-08-22T20:13:27.988Z,3.80
2022-08-22T20:16:09.576Z,3.90
2022-08-22T20:19:06.423Z,3.90
2022-08-22T20:21:51.903Z,3.53
2022-08-22T20:24:40.025Z,3.70
2022-08-22T20:27:17.089Z,4.47
2022-08-22T20:29:52.963Z,3.30
2022-08-22T20:32:23.080Z,3.72
2022-08-22T20:34:56.882Z,3.83
2022-08-22T20:37:45.466Z,3.72
2022-08-22T20:40:32.284Z,4.25
2022-08-22T20:43:13.830Z,3.97
2022-08-22T20:46:02.050Z,4.13
2022-08-22T20:48:37.667Z,4.07
2022-08-22T20:51:06.127Z,3.55
2022-08-22T20:53:34.475Z,3.88
2022-08-22T20:56:01.159Z,4.00
2022-08-22T20:58:35.514Z,4.13
2022-08-22T21:01:06.315Z,3.70
2022-08-22T21:03:47.264Z,4.07
2022-08-22T21:06:13.780Z,3.83
2022-08-22T21:08:41.584Z,3.70
2022-08-22T21:11:28.146Z,4.13
2022-08-22T21:13:55.461Z,3.73
2022-08-22T21:16:33.048Z,3.70
2022-08-22T21:19:04.276Z,4.03
2022-08-22T21:21:33.895Z,4.10
2022-08-22T21:24:09.305Z,4.28
2022-08-22T21:26:46.072Z,4.53
2022-08-22T21:29:12.398Z,4.18
2022-08-22T21:32:04.432Z,4.70
2022-08-22T21:34:36.856Z,4.20
2022-08-22T21:37:18.125Z,4.60
2022-08-22T21:39:49.776Z,5.00
2022-08-22T21:42:40.350Z,4.50
2022-08-22T21:45:25.484Z,4.72
2022-08-22T21:47:52.940Z,4.30
2022-08-22T21:50:25.269Z,4.85
2022-08-22T21:52:54.716Z,4.87
2022-08-22T21:55:42.719Z,4.70
2022-08-22T21:58:32.625Z,4.65
2022-08-22T22:01:24.830Z,5.47
2022-08-22T22:03:51.920Z,5.72
2022-08-22T22:06:18.500Z,5.07
2022-08-22T22:08:45.029Z,5.57
2022-08-22T22:11:14.223Z,5.05
2022-08-22T22:13:41.414Z,5.35
2022-08-22T22:16:09.977Z,5.60
2022-08-22T22:18:38.227Z,5.27
2022-08-22T22:21:04.917Z,5.15
2022-08-22T22:23:31.495Z,5.35
2022-08-22T22:26:01.399Z,5.70
2022-08-22T22:28:34.374Z,5.93
2022-08-22T22:31:01.096Z,5.60
2022-08-22T22:33:30.416Z,5.50
2022-08-22T22:35:59.895Z,5.80
2022-08-22T22:38:26.410Z,5.82
2022-08-22T22:40:53.232Z,5.57
2022-08-22T22:43:19.755Z,5.90
2022-08-22T22:45:46.213Z,5.30
2022-08-22T22:48:18.209Z,5.80
2022-08-22T22:50:50.873Z,6.07
2022-08-22T22:53:19.919Z,6.47
2022-08-22T22:55:59.674Z,6.10
2022-08-22T22:58:27.854Z,6.10
2022-08-22T23:00:54.807Z,5.78
2022-08-22T23:03:21.442Z,6.00
2022-08-22T23:05:47.863Z,5.63
2022-08-22T23:08:14.269Z,6.50
2022-08-22T23:10:40.655Z,6.55
2022-08-22T23:13:07.150Z,6.43
2022-08-22T23:15:33.562Z,6.28
2022-08-22T23:18:00.100Z,6.72
2022-08-22T23:20:26.667Z,7.33
2022-08-22T23:22:53.129Z,7.00
2022-08-22T23:25:19.631Z,7.25
2022-08-22T23:27:52.146Z,6.60
2022-08-22T23:30:19.991Z,6.35
2022-08-22T23:32:46.405Z,7.03
2022-08-22T23:35:12.822Z,6.57
2022-08-22T23:37:39.242Z,5.97
2022-08-22T23:40:08.558Z,6.55
2022-08-22T23:42:35.354Z,7.03
2022-08-22T23:45:01.759Z,6.93
2022-08-22T23:47:28.187Z,6.82
2022-08-22T23:49:54.587Z,6.63
2022-08-22T23:52:20.998Z,6.60
2022-08-22T23:54:47.717Z,6.43
2022-08-22T23:57:20.775Z,6.30
2022-08-22T23:59:57.902Z,6.45
